sensor_id;sensor_type;location;lat;lon;timestamp;P1;durP1;ratioP1;P2;durP2;ratioP2
31238;SDS011;17871;31.584;74.450;2023-11-19T00:01:10;377.08;;;179.82;;
31238;SDS011;17871;31.584;74.450;2023-11-19T00:03:39;386.38;;;172.38;;
31238;SDS011;17871;31.584;74.450;2023-11-19T00:06:09;364.38;;;169.38;;
31238;SDS011;17871;31.584;74.450;2023-11-19T00:08:40;370.23;;;166.85;;
31238;SDS011;17871;31.584;74.450;2023-11-19T00:11:09;361.35;;;166.85;;
31238;SDS011;17871;31.584;74.450;2023-11-19T00:13:38;364.45;;;165.40;;
31238;SDS011;17871;31.584;74.450;2023-11-19T00:16:08;348.60;;;159.13;;
31238;SDS011;17871;31.584;74.450;2023-11-19T00:18:38;329.17;;;159.73;;
31238;SDS011;17871;31.584;74.450;2023-11-19T00:21:08;344.80;;;159.38;;
31238;SDS011;17871;31.584;74.450;2023-11-19T00:23:38;345.77;;;158.18;;
31238;SDS011;17871;31.584;74.450;2023-11-19T00:26:08;347.58;;;162.88;;
31238;SDS011;17871;31.584;74.450;2023-11-19T00:28:39;378.92;;;165.10;;
31238;SDS011;17871;31.584;74.450;2023-11-19T00:31:08;364.00;;;165.10;;
31238;SDS011;17871;31.584;74.450;2023-11-19T00:33:38;358.33;;;164.23;;
31238;SDS011;17871;31.584;74.450;2023-11-19T00:36:10;354.42;;;164.80;;
31238;SDS011;17871;31.584;74.450;2023-11-19T00:38:40;354.55;;;164.25;;
31238;SDS011;17871;31.584;74.450;2023-11-19T00:41:10;352.90;;;160.15;;
31238;SDS011;17871;31.584;74.450;2023-11-19T00:43:48;359.67;;;162.20;;
31238;SDS011;17871;31.584;74.450;2023-11-19T00:46:23;353.30;;;160.00;;
31238;SDS011;17871;31.584;74.450;2023-11-19T00:48:53;363.15;;;163.82;;
31238;SDS011;17871;31.584;74.450;2023-11-19T00:51:24;345.25;;;159.32;;
31238;SDS011;17871;31.584;74.450;2023-11-19T00:53:57;347.25;;;154.13;;
31238;SDS011;17871;31.584;74.450;2023-11-19T00:56:26;335.90;;;153.35;;
31238;SDS011;17871;31.584;74.450;2023-11-19T00:58:56;345.42;;;156.05;;
31238;SDS011;17871;31.584;74.450;2023-11-19T01:01:26;350.13;;;153.43;;
31238;SDS011;17871;31.584;74.450;2023-11-19T01:03:55;334.70;;;155.82;;
31238;SDS011;17871;31.584;74.450;2023-11-19T01:06:26;341.35;;;149.80;;
31238;SDS011;17871;31.584;74.450;2023-11-19T01:08:56;346.63;;;152.07;;
31238;SDS011;17871;31.584;74.450;2023-11-19T01:11:25;332.38;;;151.25;;
31238;SDS011;17871;31.584;74.450;2023-11-19T01:13:55;334.92;;;155.30;;
31238;SDS011;17871;31.584;74.450;2023-11-19T01:16:25;325.95;;;149.07;;
31238;SDS011;17871;31.584;74.450;2023-11-19T01:18:55;361.48;;;154.05;;
31238;SDS011;17871;31.584;74.450;2023-11-19T01:21:43;335.42;;;149.55;;
31238;SDS011;17871;31.584;74.450;2023-11-19T01:24:12;342.75;;;153.55;;
31238;SDS011;17871;31.584;74.450;2023-11-19T01:26:43;318.45;;;150.65;;
31238;SDS011;17871;31.584;74.450;2023-11-19T01:29:15;342.73;;;156.10;;
31238;SDS011;17871;31.584;74.450;2023-11-19T01:31:45;330.23;;;152.98;;
31238;SDS011;17871;31.584;74.450;2023-11-19T01:34:20;336.20;;;154.88;;
31238;SDS011;17871;31.584;74.450;2023-11-19T01:36:49;339.98;;;152.27;;
31238;SDS011;17871;31.584;74.450;2023-11-19T01:39:19;300.80;;;147.35;;
31238;SDS011;17871;31.584;74.450;2023-11-19T01:41:49;344.92;;;154.95;;
31238;SDS011;17871;31.584;74.450;2023-11-19T01:44:18;327.92;;;149.93;;
31238;SDS011;17871;31.584;74.450;2023-11-19T01:46:48;337.75;;;153.40;;
31238;SDS011;17871;31.584;74.450;2023-11-19T01:49:18;344.80;;;156.48;;
31238;SDS011;17871;31.584;74.450;2023-11-19T01:51:48;334.15;;;157.73;;
31238;SDS011;17871;31.584;74.450;2023-11-19T01:54:18;349.77;;;156.63;;
31238;SDS011;17871;31.584;74.450;2023-11-19T01:56:47;333.17;;;158.00;;
31238;SDS011;17871;31.584;74.450;2023-11-19T01:59:17;344.00;;;160.55;;
31238;SDS011;17871;31.584;74.450;2023-11-19T02:01:46;356.67;;;159.10;;
31238;SDS011;17871;31.584;74.450;2023-11-19T02:04:26;368.92;;;159.15;;
31238;SDS011;17871;31.584;74.450;2023-11-19T02:06:55;366.73;;;161.63;;
31238;SDS011;17871;31.584;74.450;2023-11-19T02:09:25;372.85;;;164.40;;
31238;SDS011;17871;31.584;74.450;2023-11-19T02:11:55;351.90;;;160.75;;
31238;SDS011;17871;31.584;74.450;2023-11-19T02:14:25;371.73;;;164.48;;
31238;SDS011;17871;31.584;74.450;2023-11-19T02:16:56;384.70;;;164.80;;
31238;SDS011;17871;31.584;74.450;2023-11-19T02:19:25;376.55;;;169.43;;
31238;SDS011;17871;31.584;74.450;2023-11-19T02:21:54;370.00;;;169.77;;
31238;SDS011;17871;31.584;74.450;2023-11-19T02:24:25;380.27;;;175.23;;
31238;SDS011;17871;31.584;74.450;2023-11-19T02:27:10;345.85;;;159.70;;
31238;SDS011;17871;31.584;74.450;2023-11-19T02:29:43;342.58;;;155.90;;
31238;SDS011;17871;31.584;74.450;2023-11-19T02:32:12;357.77;;;167.63;;
31238;SDS011;17871;31.584;74.450;2023-11-19T02:34:42;352.27;;;164.70;;
31238;SDS011;17871;31.584;74.450;2023-11-19T02:37:11;367.77;;;168.05;;
31238;SDS011;17871;31.584;74.450;2023-11-19T02:39:41;384.55;;;169.75;;
31238;SDS011;17871;31.584;74.450;2023-11-19T02:42:10;361.75;;;173.75;;
31238;SDS011;17871;31.584;74.450;2023-11-19T02:44:43;363.15;;;171.07;;
31238;SDS011;17871;31.584;74.450;2023-11-19T02:49:41;364.65;;;168.27;;
31238;SDS011;17871;31.584;74.450;2023-11-19T02:52:11;363.63;;;182.85;;
31238;SDS011;17871;31.584;74.450;2023-11-19T02:54:41;391.65;;;185.90;;
31238;SDS011;17871;31.584;74.450;2023-11-19T02:57:11;396.08;;;194.13;;
31238;SDS011;17871;31.584;74.450;2023-11-19T02:59:49;390.83;;;196.85;;
31238;SDS011;17871;31.584;74.450;2023-11-19T03:02:18;403.45;;;202.23;;
31238;SDS011;17871;31.584;74.450;2023-11-19T03:04:48;413.02;;;202.88;;
31238;SDS011;17871;31.584;74.450;2023-11-19T03:07:17;412.13;;;194.10;;
31238;SDS011;17871;31.584;74.450;2023-11-19T03:09:48;390.55;;;190.27;;
31238;SDS011;17871;31.584;74.450;2023-11-19T03:12:18;399.63;;;193.80;;
31238;SDS011;17871;31.584;74.450;2023-11-19T03:14:47;375.10;;;183.13;;
31238;SDS011;17871;31.584;74.450;2023-11-19T03:17:19;386.52;;;185.38;;
31238;SDS011;17871;31.584;74.450;2023-11-19T03:19:48;399.85;;;193.07;;
31238;SDS011;17871;31.584;74.450;2023-11-19T03:22:18;393.75;;;188.13;;
31238;SDS011;17871;31.584;74.450;2023-11-19T03:24:47;379.35;;;186.57;;
31238;SDS011;17871;31.584;74.450;2023-11-19T03:27:16;388.02;;;191.98;;
31238;SDS011;17871;31.584;74.450;2023-11-19T03:29:45;408.50;;;191.27;;
31238;SDS011;17871;31.584;74.450;2023-11-19T03:32:15;364.25;;;174.95;;
31238;SDS011;17871;31.584;74.450;2023-11-19T03:34:44;348.85;;;166.52;;
31238;SDS011;17871;31.584;74.450;2023-11-19T03:37:13;308.58;;;146.05;;
31238;SDS011;17871;31.584;74.450;2023-11-19T03:39:46;317.42;;;149.07;;
31238;SDS011;17871;31.584;74.450;2023-11-19T03:42:15;285.92;;;139.73;;
31238;SDS011;17871;31.584;74.450;2023-11-19T03:44:45;278.33;;;136.27;;
31238;SDS011;17871;31.584;74.450;2023-11-19T03:47:14;261.13;;;127.50;;
31238;SDS011;17871;31.584;74.450;2023-11-19T03:49:46;244.80;;;116.72;;
31238;SDS011;17871;31.584;74.450;2023-11-19T03:54:47;217.43;;;109.35;;
31238;SDS011;17871;31.584;74.450;2023-11-19T03:57:16;231.85;;;110.30;;
31238;SDS011;17871;31.584;74.450;2023-11-19T03:59:46;227.98;;;112.13;;
31238;SDS011;17871;31.584;74.450;2023-11-19T04:02:15;218.52;;;107.18;;
31238;SDS011;17871;31.584;74.450;2023-11-19T04:04:46;224.52;;;105.15;;
31238;SDS011;17871;31.584;74.450;2023-11-19T04:07:15;220.95;;;110.82;;
31238;SDS011;17871;31.584;74.450;2023-11-19T04:09:44;210.95;;;99.47;;
31238;SDS011;17871;31.584;74.450;2023-11-19T04:12:15;205.60;;;103.78;;
31238;SDS011;17871;31.584;74.450;2023-11-19T04:14:44;185.02;;;92.75;;
31238;SDS011;17871;31.584;74.450;2023-11-19T04:17:13;187.90;;;91.32;;
31238;SDS011;17871;31.584;74.450;2023-11-19T04:19:43;184.45;;;90.07;;
31238;SDS011;17871;31.584;74.450;2023-11-19T04:22:13;178.73;;;92.70;;
31238;SDS011;17871;31.584;74.450;2023-11-19T04:24:42;184.55;;;92.30;;
31238;SDS011;17871;31.584;74.450;2023-11-19T04:27:14;192.55;;;88.50;;
31238;SDS011;17871;31.584;74.450;2023-11-19T04:29:43;170.07;;;82.35;;
31238;SDS011;17871;31.584;74.450;2023-11-19T04:32:14;159.02;;;78.60;;
31238;SDS011;17871;31.584;74.450;2023-11-19T04:34:43;159.20;;;74.93;;
31238;SDS011;17871;31.584;74.450;2023-11-19T04:37:13;145.00;;;72.95;;
31238;SDS011;17871;31.584;74.450;2023-11-19T04:39:44;142.30;;;71.78;;
31238;SDS011;17871;31.584;74.450;2023-11-19T04:42:14;145.98;;;71.88;;
31238;SDS011;17871;31.584;74.450;2023-11-19T04:44:45;154.88;;;70.22;;
31238;SDS011;17871;31.584;74.450;2023-11-19T04:47:15;137.07;;;63.58;;
31238;SDS011;17871;31.584;74.450;2023-11-19T04:49:44;126.95;;;60.15;;
31238;SDS011;17871;31.584;74.450;2023-11-19T04:52:14;125.55;;;60.65;;
31238;SDS011;17871;31.584;74.450;2023-11-19T04:54:43;114.22;;;55.22;;
31238;SDS011;17871;31.584;74.450;2023-11-19T04:57:13;115.25;;;56.92;;
31238;SDS011;17871;31.584;74.450;2023-11-19T04:59:42;115.03;;;57.92;;
31238;SDS011;17871;31.584;74.450;2023-11-19T05:02:12;132.75;;;59.90;;
31238;SDS011;17871;31.584;74.450;2023-11-19T05:04:44;115.72;;;58.85;;
31238;SDS011;17871;31.584;74.450;2023-11-19T05:07:15;120.18;;;54.63;;
31238;SDS011;17871;31.584;74.450;2023-11-19T05:09:45;113.72;;;55.72;;
31238;SDS011;17871;31.584;74.450;2023-11-19T05:12:15;122.00;;;58.05;;
31238;SDS011;17871;31.584;74.450;2023-11-19T05:14:44;120.10;;;58.33;;
31238;SDS011;17871;31.584;74.450;2023-11-19T05:17:18;123.43;;;59.03;;
31238;SDS011;17871;31.584;74.450;2023-11-19T05:19:51;115.35;;;60.83;;
31238;SDS011;17871;31.584;74.450;2023-11-19T05:22:20;136.73;;;53.67;;
31238;SDS011;17871;31.584;74.450;2023-11-19T05:24:50;113.05;;;55.45;;
31238;SDS011;17871;31.584;74.450;2023-11-19T05:27:19;103.55;;;51.80;;
31238;SDS011;17871;31.584;74.450;2023-11-19T05:29:49;112.55;;;52.35;;
31238;SDS011;17871;31.584;74.450;2023-11-19T05:32:18;112.47;;;50.08;;
31238;SDS011;17871;31.584;74.450;2023-11-19T05:34:48;105.25;;;49.20;;
31238;SDS011;17871;31.584;74.450;2023-11-19T05:37:19;100.40;;;48.78;;
31238;SDS011;17871;31.584;74.450;2023-11-19T05:39:48;89.68;;;46.83;;
31238;SDS011;17871;31.584;74.450;2023-11-19T05:42:18;100.07;;;49.95;;
31238;SDS011;17871;31.584;74.450;2023-11-19T05:44:47;96.13;;;47.03;;
31238;SDS011;17871;31.584;74.450;2023-11-19T05:47:16;111.28;;;49.28;;
31238;SDS011;17871;31.584;74.450;2023-11-19T05:49:46;99.53;;;49.05;;
31238;SDS011;17871;31.584;74.450;2023-11-19T05:52:15;97.53;;;51.03;;
31238;SDS011;17871;31.584;74.450;2023-11-19T05:54:45;102.45;;;50.70;;
31238;SDS011;17871;31.584;74.450;2023-11-19T05:57:15;99.60;;;52.15;;
31238;SDS011;17871;31.584;74.450;2023-11-19T05:59:48;97.72;;;51.28;;
31238;SDS011;17871;31.584;74.450;2023-11-19T06:02:18;103.72;;;53.22;;
31238;SDS011;17871;31.584;74.450;2023-11-19T06:04:47;109.43;;;50.15;;
31238;SDS011;17871;31.584;74.450;2023-11-19T06:07:17;98.70;;;50.15;;
31238;SDS011;17871;31.584;74.450;2023-11-19T06:09:47;108.03;;;46.05;;
31238;SDS011;17871;31.584;74.450;2023-11-19T06:12:16;97.13;;;47.75;;
31238;SDS011;17871;31.584;74.450;2023-11-19T06:14:45;128.98;;;50.28;;
31238;SDS011;17871;31.584;74.450;2023-11-19T06:17:15;122.88;;;52.17;;
31238;SDS011;17871;31.584;74.450;2023-11-19T06:19:44;88.88;;;44.70;;
31238;SDS011;17871;31.584;74.450;2023-11-19T06:22:13;88.35;;;46.17;;
31238;SDS011;17871;31.584;74.450;2023-11-19T06:24:43;95.10;;;45.85;;
31238;SDS011;17871;31.584;74.450;2023-11-19T06:27:12;89.53;;;47.50;;
31238;SDS011;17871;31.584;74.450;2023-11-19T06:29:41;82.97;;;45.20;;
31238;SDS011;17871;31.584;74.450;2023-11-19T06:32:14;81.80;;;45.38;;
31238;SDS011;17871;31.584;74.450;2023-11-19T06:34:49;88.00;;;45.92;;
31238;SDS011;17871;31.584;74.450;2023-11-19T06:37:22;95.53;;;47.08;;
31238;SDS011;17871;31.584;74.450;2023-11-19T06:39:52;86.63;;;47.42;;
31238;SDS011;17871;31.584;74.450;2023-11-19T06:42:21;97.53;;;47.65;;
31238;SDS011;17871;31.584;74.450;2023-11-19T06:44:51;108.15;;;45.40;;
31238;SDS011;17871;31.584;74.450;2023-11-19T06:47:20;85.47;;;44.60;;
31238;SDS011;17871;31.584;74.450;2023-11-19T06:49:49;85.00;;;43.03;;
31238;SDS011;17871;31.584;74.450;2023-11-19T06:52:19;88.00;;;45.60;;
31238;SDS011;17871;31.584;74.450;2023-11-19T06:54:48;93.85;;;43.13;;
31238;SDS011;17871;31.584;74.450;2023-11-19T06:57:18;79.10;;;42.60;;
31238;SDS011;17871;31.584;74.450;2023-11-19T06:59:49;90.10;;;42.80;;
31238;SDS011;17871;31.584;74.450;2023-11-19T07:02:18;72.97;;;40.22;;
31238;SDS011;17871;31.584;74.450;2023-11-19T07:04:47;77.05;;;40.47;;
31238;SDS011;17871;31.584;74.450;2023-11-19T07:07:16;87.72;;;41.63;;
31238;SDS011;17871;31.584;74.450;2023-11-19T07:09:46;80.47;;;40.22;;
31238;SDS011;17871;31.584;74.450;2023-11-19T07:12:16;85.80;;;41.35;;
31238;SDS011;17871;31.584;74.450;2023-11-19T07:14:45;104.32;;;43.42;;
31238;SDS011;17871;31.584;74.450;2023-11-19T07:17:15;90.47;;;41.22;;
31238;SDS011;17871;31.584;74.450;2023-11-19T07:19:51;78.72;;;38.95;;
31238;SDS011;17871;31.584;74.450;2023-11-19T07:22:21;79.75;;;40.97;;
31238;SDS011;17871;31.584;74.450;2023-11-19T07:24:50;72.85;;;37.53;;
31238;SDS011;17871;31.584;74.450;2023-11-19T07:27:20;72.95;;;39.88;;
31238;SDS011;17871;31.584;74.450;2023-11-19T07:29:49;74.47;;;37.83;;
31238;SDS011;17871;31.584;74.450;2023-11-19T07:32:18;72.07;;;38.13;;
31238;SDS011;17871;31.584;74.450;2023-11-19T07:34:48;78.47;;;39.15;;
31238;SDS011;17871;31.584;74.450;2023-11-19T07:37:17;86.07;;;40.95;;
31238;SDS011;17871;31.584;74.450;2023-11-19T07:39:47;83.85;;;41.17;;
31238;SDS011;17871;31.584;74.450;2023-11-19T07:42:16;73.60;;;38.58;;
31238;SDS011;17871;31.584;74.450;2023-11-19T07:44:45;71.25;;;39.80;;
31238;SDS011;17871;31.584;74.450;2023-11-19T07:47:15;48.28;;;26.90;;
31238;SDS011;17871;31.584;74.450;2023-11-19T07:49:44;40.20;;;23.02;;
31238;SDS011;17871;31.584;74.450;2023-11-19T07:52:13;44.05;;;23.88;;
31238;SDS011;17871;31.584;74.450;2023-11-19T07:54:45;49.55;;;25.65;;
31238;SDS011;17871;31.584;74.450;2023-11-19T07:57:15;49.30;;;25.38;;
31238;SDS011;17871;31.584;74.450;2023-11-19T07:59:44;39.38;;;21.40;;
31238;SDS011;17871;31.584;74.450;2023-11-19T08:02:14;43.60;;;23.17;;
31238;SDS011;17871;31.584;74.450;2023-11-19T08:04:43;51.75;;;26.98;;
31238;SDS011;17871;31.584;74.450;2023-11-19T08:07:14;50.92;;;26.38;;
31238;SDS011;17871;31.584;74.450;2023-11-19T08:09:43;53.13;;;24.90;;
31238;SDS011;17871;31.584;74.450;2023-11-19T08:12:13;65.78;;;24.08;;
31238;SDS011;17871;31.584;74.450;2023-11-19T08:14:46;55.20;;;25.50;;
31238;SDS011;17871;31.584;74.450;2023-11-19T08:17:15;65.05;;;23.90;;
31238;SDS011;17871;31.584;74.450;2023-11-19T08:19:45;68.63;;;28.75;;
31238;SDS011;17871;31.584;74.450;2023-11-19T08:22:14;59.15;;;30.10;;
31238;SDS011;17871;31.584;74.450;2023-11-19T08:24:45;53.45;;;29.33;;
31238;SDS011;17871;31.584;74.450;2023-11-19T08:27:14;50.97;;;28.02;;
31238;SDS011;17871;31.584;74.450;2023-11-19T08:29:44;48.25;;;24.85;;
31238;SDS011;17871;31.584;74.450;2023-11-19T08:32:14;49.50;;;24.88;;
31238;SDS011;17871;31.584;74.450;2023-11-19T08:34:43;44.80;;;24.35;;
31238;SDS011;17871;31.584;74.450;2023-11-19T08:37:12;44.45;;;21.80;;
31238;SDS011;17871;31.584;74.450;2023-11-19T08:39:46;51.22;;;23.63;;
31238;SDS011;17871;31.584;74.450;2023-11-19T08:42:15;53.45;;;24.45;;
31238;SDS011;17871;31.584;74.450;2023-11-19T08:44:48;35.78;;;20.20;;
31238;SDS011;17871;31.584;74.450;2023-11-19T08:47:19;36.15;;;20.13;;
31238;SDS011;17871;31.584;74.450;2023-11-19T08:49:52;46.17;;;19.08;;
31238;SDS011;17871;31.584;74.450;2023-11-19T08:52:25;37.70;;;20.60;;
31238;SDS011;17871;31.584;74.450;2023-11-19T08:54:56;50.10;;;18.77;;
31238;SDS011;17871;31.584;74.450;2023-11-19T08:57:26;57.08;;;20.55;;
31238;SDS011;17871;31.584;74.450;2023-11-19T08:59:57;28.15;;;16.50;;
31238;SDS011;17871;31.584;74.450;2023-11-19T09:04:58;32.22;;;15.98;;
31238;SDS011;17871;31.584;74.450;2023-11-19T09:07:28;28.40;;;14.98;;
31238;SDS011;17871;31.584;74.450;2023-11-19T09:09:58;42.25;;;15.70;;
31238;SDS011;17871;31.584;74.450;2023-11-19T09:12:28;21.80;;;13.68;;
31238;SDS011;17871;31.584;74.450;2023-11-19T09:14:59;21.80;;;11.55;;
31238;SDS011;17871;31.584;74.450;2023-11-19T09:17:29;25.75;;;13.85;;
31238;SDS011;17871;31.584;74.450;2023-11-19T09:20:00;29.08;;;16.00;;
31238;SDS011;17871;31.584;74.450;2023-11-19T09:22:30;31.13;;;14.50;;
31238;SDS011;17871;31.584;74.450;2023-11-19T09:25:00;31.80;;;16.10;;
31238;SDS011;17871;31.584;74.450;2023-11-19T09:27:29;27.55;;;16.25;;
31238;SDS011;17871;31.584;74.450;2023-11-19T09:30:01;40.67;;;16.02;;
31238;SDS011;17871;31.584;74.450;2023-11-19T09:32:35;41.00;;;18.77;;
31238;SDS011;17871;31.584;74.450;2023-11-19T09:35:07;51.92;;;18.73;;
31238;SDS011;17871;31.584;74.450;2023-11-19T09:37:43;37.03;;;18.17;;
31238;SDS011;17871;31.584;74.450;2023-11-19T09:40:14;30.55;;;16.65;;
31238;SDS011;17871;31.584;74.450;2023-11-19T09:42:44;35.72;;;18.55;;
31238;SDS011;17871;31.584;74.450;2023-11-19T09:45:17;50.13;;;18.60;;
31238;SDS011;17871;31.584;74.450;2023-11-19T09:47:49;41.90;;;20.60;;
31238;SDS011;17871;31.584;74.450;2023-11-19T09:52:53;47.60;;;20.92;;
31238;SDS011;17871;31.584;74.450;2023-11-19T09:55:23;43.78;;;20.25;;
31238;SDS011;17871;31.584;74.450;2023-11-19T09:57:53;55.15;;;20.80;;
31238;SDS011;17871;31.584;74.450;2023-11-19T10:00:26;33.28;;;18.08;;
31238;SDS011;17871;31.584;74.450;2023-11-19T10:02:56;36.75;;;21.58;;
31238;SDS011;17871;31.584;74.450;2023-11-19T10:05:26;37.05;;;19.45;;
31238;SDS011;17871;31.584;74.450;2023-11-19T10:08:01;33.72;;;17.75;;
31238;SDS011;17871;31.584;74.450;2023-11-19T10:10:33;32.13;;;18.48;;
31238;SDS011;17871;31.584;74.450;2023-11-19T10:13:05;37.53;;;20.30;;
31238;SDS011;17871;31.584;74.450;2023-11-19T10:15:37;33.20;;;19.25;;
31238;SDS011;17871;31.584;74.450;2023-11-19T10:18:08;38.20;;;18.73;;
31238;SDS011;17871;31.584;74.450;2023-11-19T10:20:41;40.20;;;19.80;;
31238;SDS011;17871;31.584;74.450;2023-11-19T10:23:13;41.63;;;21.42;;
31238;SDS011;17871;31.584;74.450;2023-11-19T10:25:44;51.33;;;21.13;;
31238;SDS011;17871;31.584;74.450;2023-11-19T10:28:15;39.28;;;22.75;;
31238;SDS011;17871;31.584;74.450;2023-11-19T10:30:48;37.50;;;20.58;;
31238;SDS011;17871;31.584;74.450;2023-11-19T10:33:19;51.83;;;22.17;;
31238;SDS011;17871;31.584;74.450;2023-11-19T10:35:54;47.05;;;21.20;;
31238;SDS011;17871;31.584;74.450;2023-11-19T10:38:29;47.97;;;24.00;;
31238;SDS011;17871;31.584;74.450;2023-11-19T10:41:00;50.58;;;26.13;;
31238;SDS011;17871;31.584;74.450;2023-11-19T10:43:29;59.00;;;24.13;;
31238;SDS011;17871;31.584;74.450;2023-11-19T10:46:09;42.85;;;23.42;;
31238;SDS011;17871;31.584;74.450;2023-11-19T10:48:44;42.53;;;22.10;;
31238;SDS011;17871;31.584;74.450;2023-11-19T10:51:19;52.53;;;25.00;;
31238;SDS011;17871;31.584;74.450;2023-11-19T10:53:52;45.33;;;23.33;;
31238;SDS011;17871;31.584;74.450;2023-11-19T10:56:25;54.17;;;25.23;;
31238;SDS011;17871;31.584;74.450;2023-11-19T10:58:56;62.72;;;25.00;;
31238;SDS011;17871;31.584;74.450;2023-11-19T11:01:32;58.25;;;26.38;;
31238;SDS011;17871;31.584;74.450;2023-11-19T11:04:03;71.13;;;27.27;;
31238;SDS011;17871;31.584;74.450;2023-11-19T11:06:34;72.03;;;30.30;;
31238;SDS011;17871;31.584;74.450;2023-11-19T11:09:05;55.47;;;29.88;;
31238;SDS011;17871;31.584;74.450;2023-11-19T11:11:37;65.47;;;26.27;;
31238;SDS011;17871;31.584;74.450;2023-11-19T11:14:08;59.88;;;27.88;;
31238;SDS011;17871;31.584;74.450;2023-11-19T11:16:44;62.33;;;28.77;;
31238;SDS011;17871;31.584;74.450;2023-11-19T11:19:16;64.07;;;29.27;;
31238;SDS011;17871;31.584;74.450;2023-11-19T11:21:50;54.63;;;28.60;;
31238;SDS011;17871;31.584;74.450;2023-11-19T11:24:34;57.38;;;29.92;;
31238;SDS011;17871;31.584;74.450;2023-11-19T11:32:35;78.30;;;32.78;;
31238;SDS011;17871;31.584;74.450;2023-11-19T11:38:03;70.00;;;34.08;;
31238;SDS011;17871;31.584;74.450;2023-11-19T11:40:33;73.20;;;35.10;;
31238;SDS011;17871;31.584;74.450;2023-11-19T11:43:04;74.00;;;37.90;;
31238;SDS011;17871;31.584;74.450;2023-11-19T11:45:54;88.45;;;41.92;;
31238;SDS011;17871;31.584;74.450;2023-11-19T11:48:25;79.63;;;38.53;;
31238;SDS011;17871;31.584;74.450;2023-11-19T11:50:57;109.05;;;44.70;;
31238;SDS011;17871;31.584;74.450;2023-11-19T11:53:28;102.88;;;45.47;;
31238;SDS011;17871;31.584;74.450;2023-11-19T11:56:00;98.00;;;45.47;;
31238;SDS011;17871;31.584;74.450;2023-11-19T11:58:32;113.32;;;48.63;;
31238;SDS011;17871;31.584;74.450;2023-11-19T12:01:03;133.75;;;52.22;;
31238;SDS011;17871;31.584;74.450;2023-11-19T12:03:36;140.43;;;51.40;;
31238;SDS011;17871;31.584;74.450;2023-11-19T12:06:07;122.07;;;52.47;;
31238;SDS011;17871;31.584;74.450;2023-11-19T12:08:41;147.13;;;55.42;;
31238;SDS011;17871;31.584;74.450;2023-11-19T12:11:14;142.00;;;59.47;;
31238;SDS011;17871;31.584;74.450;2023-11-19T12:13:53;131.10;;;60.28;;
31238;SDS011;17871;31.584;74.450;2023-11-19T12:16:32;145.23;;;63.08;;
31238;SDS011;17871;31.584;74.450;2023-11-19T12:19:06;163.07;;;67.40;;
31238;SDS011;17871;31.584;74.450;2023-11-19T12:21:39;183.73;;;71.93;;
31238;SDS011;17871;31.584;74.450;2023-11-19T12:24:09;167.57;;;73.22;;
31238;SDS011;17871;31.584;74.450;2023-11-19T12:26:41;176.55;;;72.32;;
31238;SDS011;17871;31.584;74.450;2023-11-19T12:29:10;156.63;;;74.70;;
31238;SDS011;17871;31.584;74.450;2023-11-19T12:31:43;166.98;;;78.40;;
31238;SDS011;17871;31.584;74.450;2023-11-19T12:34:13;194.43;;;79.93;;
31238;SDS011;17871;31.584;74.450;2023-11-19T12:36:43;210.80;;;88.28;;
31238;SDS011;17871;31.584;74.450;2023-11-19T12:39:12;205.13;;;86.20;;
31238;SDS011;17871;31.584;74.450;2023-11-19T12:41:48;189.50;;;83.25;;
31238;SDS011;17871;31.584;74.450;2023-11-19T12:44:19;193.38;;;80.93;;
31238;SDS011;17871;31.584;74.450;2023-11-19T12:47:09;175.10;;;78.00;;
31238;SDS011;17871;31.584;74.450;2023-11-19T12:49:40;188.80;;;81.00;;
31238;SDS011;17871;31.584;74.450;2023-11-19T12:52:13;194.07;;;85.88;;
31238;SDS011;17871;31.584;74.450;2023-11-19T12:54:42;180.35;;;84.32;;
31238;SDS011;17871;31.584;74.450;2023-11-19T12:57:12;177.48;;;88.40;;
31238;SDS011;17871;31.584;74.450;2023-11-19T12:59:42;209.02;;;92.72;;
31238;SDS011;17871;31.584;74.450;2023-11-19T13:02:12;217.70;;;91.60;;
31238;SDS011;17871;31.584;74.450;2023-11-19T13:04:41;229.85;;;94.15;;
31238;SDS011;17871;31.584;74.450;2023-11-19T13:07:11;217.38;;;93.43;;
31238;SDS011;17871;31.584;74.450;2023-11-19T13:09:41;252.80;;;101.80;;
31238;SDS011;17871;31.584;74.450;2023-11-19T13:12:14;236.70;;;101.13;;
31238;SDS011;17871;31.584;74.450;2023-11-19T13:14:45;253.52;;;112.43;;
31238;SDS011;17871;31.584;74.450;2023-11-19T13:17:17;218.63;;;96.97;;
31238;SDS011;17871;31.584;74.450;2023-11-19T13:19:47;214.07;;;91.40;;
31238;SDS011;17871;31.584;74.450;2023-11-19T13:22:18;226.18;;;88.30;;
31238;SDS011;17871;31.584;74.450;2023-11-19T13:24:49;218.68;;;92.30;;
31238;SDS011;17871;31.584;74.450;2023-11-19T13:27:21;199.97;;;86.63;;
31238;SDS011;17871;31.584;74.450;2023-11-19T13:29:52;205.70;;;89.32;;
31238;SDS011;17871;31.584;74.450;2023-11-19T13:32:21;212.80;;;91.47;;
31238;SDS011;17871;31.584;74.450;2023-11-19T13:34:51;194.43;;;86.35;;
31238;SDS011;17871;31.584;74.450;2023-11-19T13:37:23;199.10;;;82.93;;
31238;SDS011;17871;31.584;74.450;2023-11-19T13:39:54;190.85;;;78.07;;
31238;SDS011;17871;31.584;74.450;2023-11-19T13:42:26;158.05;;;76.70;;
31238;SDS011;17871;31.584;74.450;2023-11-19T13:44:57;170.95;;;76.75;;
31238;SDS011;17871;31.584;74.450;2023-11-19T13:47:29;176.57;;;78.53;;
31238;SDS011;17871;31.584;74.450;2023-11-19T13:49:59;178.65;;;80.70;;
31238;SDS011;17871;31.584;74.450;2023-11-19T13:52:30;275.40;;;86.13;;
31238;SDS011;17871;31.584;74.450;2023-11-19T13:55:00;202.32;;;87.97;;
31238;SDS011;17871;31.584;74.450;2023-11-19T13:57:30;206.90;;;85.97;;
31238;SDS011;17871;31.584;74.450;2023-11-19T14:00:05;174.25;;;80.10;;
31238;SDS011;17871;31.584;74.450;2023-11-19T14:02:55;196.32;;;80.50;;
31238;SDS011;17871;31.584;74.450;2023-11-19T14:05:25;176.70;;;83.15;;
31238;SDS011;17871;31.584;74.450;2023-11-19T14:07:59;187.65;;;79.15;;
31238;SDS011;17871;31.584;74.450;2023-11-19T14:10:35;156.55;;;71.65;;
31238;SDS011;17871;31.584;74.450;2023-11-19T14:13:07;183.77;;;77.40;;
31238;SDS011;17871;31.584;74.450;2023-11-19T14:15:37;186.38;;;75.50;;
31238;SDS011;17871;31.584;74.450;2023-11-19T14:18:11;159.75;;;73.10;;
31238;SDS011;17871;31.584;74.450;2023-11-19T14:20:41;165.02;;;77.03;;
31238;SDS011;17871;31.584;74.450;2023-11-19T14:23:11;182.93;;;73.07;;
31238;SDS011;17871;31.584;74.450;2023-11-19T14:25:42;171.02;;;72.78;;
31238;SDS011;17871;31.584;74.450;2023-11-19T14:28:12;168.23;;;70.32;;
31238;SDS011;17871;31.584;74.450;2023-11-19T14:30:43;165.80;;;72.85;;
31238;SDS011;17871;31.584;74.450;2023-11-19T14:33:14;148.70;;;71.22;;
31238;SDS011;17871;31.584;74.450;2023-11-19T14:35:43;162.77;;;71.95;;
31238;SDS011;17871;31.584;74.450;2023-11-19T14:38:14;174.45;;;74.05;;